Time;durP1;ratioP1;P1;durP2;ratioP2;P2;SDS_P1;SDS_P2;PMS_P1;PMS_P2;Temp;Humidity;BMP_temperature;BMP_pressure;BME280_temperature;BME280_humidity;BME280_pressure;Samples;Min_cycle;Max_cycle;Signal;HPM_P1;HPM_P2
2023/09/29 00:00:48;;;;;;;7.10;3.97;;;13.60;99.90;13.50;100848.00;;;;4992347;28;112620;-65
2023/09/29 00:03:15;;;;;;;5.03;4.17;;;13.50;99.90;13.50;100839.00;;;;4992064;28;103095;-65
2023/09/29 00:05:43;;;;;;;5.23;3.97;;;13.60;99.90;13.50;100833.00;;;;4992663;28;87981;-64
2023/09/29 00:08:16;;;;;;;4.60;3.80;;;13.50;99.90;13.40;100830.00;;;;4990298;27;102749;-64
2023/09/29 00:10:45;;;;;;;4.63;3.40;;;13.40;99.90;13.40;100835.00;;;;4998755;28;87660;-65
2023/09/29 00:13:12;;;;;;;5.50;4.40;;;13.40;99.90;13.40;100834.00;;;;4971319;28;87757;-65
2023/09/29 00:15:38;;;;;;;5.53;3.90;;;13.40;99.90;13.40;100834.00;;;;4992999;28;92076;-65
2023/09/29 00:18:07;;;;;;;4.43;3.87;;;13.40;99.90;13.30;100834.00;;;;4988073;27;88807;-65
2023/09/29 00:20:34;;;;;;;5.03;4.10;;;13.30;99.90;13.30;100831.00;;;;4992282;27;87679;-65
2023/09/29 00:23:01;;;;;;;5.03;3.70;;;13.50;99.90;13.30;100823.00;;;;4992954;28;87942;-65
2023/09/29 00:25:27;;;;;;;4.00;3.53;;;13.30;99.90;13.30;100817.00;;;;4988874;28;88657;-66
2023/09/29 00:27:56;;;;;;;4.07;3.63;;;13.30;99.90;13.30;100818.00;;;;4992628;27;110655;-65
2023/09/29 00:30:25;;;;;;;5.20;4.40;;;13.30;99.90;13.20;100813.00;;;;4992226;27;87576;-65
2023/09/29 00:32:54;;;;;;;6.33;4.47;;;13.20;99.90;13.20;100822.00;;;;4993067;27;88146;-65
2023/09/29 00:35:27;;;;;;;3.70;3.40;;;13.20;99.90;13.20;100818.00;;;;4991315;27;108933;-65
2023/09/29 00:38:16;;;;;;;4.40;3.73;;;13.20;99.90;13.10;100811.00;;;;4991695;27;88885;-65
2023/09/29 00:40:42;;;;;;;8.43;3.53;;;13.10;99.90;13.10;100816.00;;;;4982914;27;118070;-64
2023/09/29 00:43:08;;;;;;;4.43;3.07;;;13.10;99.90;13.10;100819.00;;;;4989108;28;110240;-65
2023/09/29 00:45:35;;;;;;;5.20;4.20;;;13.10;99.90;13.10;100816.00;;;;4989158;27;87550;-64
2023/09/29 00:48:09;;;;;;;5.40;3.73;;;13.10;99.90;13.00;100816.00;;;;4993563;27;87877;-64
2023/09/29 00:50:37;;;;;;;6.93;4.73;;;13.10;99.90;13.00;100819.00;;;;4989503;28;88856;-64
2023/09/29 00:53:07;;;;;;;5.17;4.10;;;13.00;99.90;13.00;100813.00;;;;4976469;27;101983;-66
2023/09/29 00:55:35;;;;;;;7.23;4.67;;;13.00;99.90;13.00;100821.00;;;;4976874;28;88291;-65
2023/09/29 00:58:02;;;;;;;7.30;3.93;;;13.00;99.90;12.90;100822.00;;;;4971863;28;87975;-64
2023/09/29 01:00:32;;;;;;;6.20;3.97;;;13.00;99.90;12.90;100813.00;;;;4976040;28;87718;-65
2023/09/29 01:03:12;;;;;;;5.13;3.37;;;12.90;99.90;12.90;100812.00;;;;4989572;28;87946;-65
2023/09/29 01:05:44;;;;;;;5.43;3.50;;;12.80;99.90;12.90;100818.00;;;;4991169;27;87863;-64
2023/09/29 01:08:12;;;;;;;5.17;3.50;;;13.00;99.90;12.80;100806.00;;;;4976472;28;87191;-66
2023/09/29 01:10:42;;;;;;;5.10;4.27;;;12.90;99.90;12.80;100795.00;;;;4994438;27;87859;-64
2023/09/29 01:13:08;;;;;;;7.37;4.20;;;12.80;99.90;12.80;100809.00;;;;4992776;27;110136;-65
2023/09/29 01:15:34;;;;;;;5.57;4.57;;;12.80;99.90;12.80;100801.00;;;;4982469;28;90407;-65
2023/09/29 01:18:01;;;;;;;4.87;4.33;;;12.80;99.90;12.80;100801.00;;;;4987119;27;118115;-65
2023/09/29 01:20:28;;;;;;;3.60;3.30;;;12.80;99.90;12.80;100802.00;;;;4990251;28;87938;-65
2023/09/29 01:22:56;;;;;;;6.37;3.83;;;12.80;99.90;12.80;100791.00;;;;4996140;27;87801;-65
2023/09/29 01:25:22;;;;;;;4.40;3.93;;;12.70;99.90;12.70;100785.00;;;;4989352;27;87696;-66
2023/09/29 01:27:49;;;;;;;4.20;3.53;;;12.70;99.90;12.70;100797.00;;;;4991209;28;117027;-65
2023/09/29 01:30:16;;;;;;;4.03;3.40;;;12.70;99.90;12.70;100797.00;;;;4992686;28;88160;-65
2023/09/29 01:32:43;;;;;;;5.77;3.87;;;12.70;99.90;12.70;100795.00;;;;4993517;27;87153;-65
2023/09/29 01:35:15;;;;;;;6.07;3.43;;;12.70;99.90;12.60;100796.00;;;;4989067;27;108126;-66
2023/09/29 01:37:42;;;;;;;4.33;3.83;;;12.70;99.90;12.60;100796.00;;;;4989748;27;88400;-67
2023/09/29 01:40:09;;;;;;;4.10;3.70;;;12.60;99.90;12.60;100796.00;;;;4990866;27;88784;-64
2023/09/29 01:42:36;;;;;;;5.83;3.83;;;12.60;99.90;12.60;100794.00;;;;4990393;28;87850;-65
2023/09/29 01:45:08;;;;;;;7.43;4.67;;;12.60;99.90;12.60;100802.00;;;;4992506;27;101572;-65
2023/09/29 01:47:38;;;;;;;4.57;4.00;;;12.60;99.90;12.60;100793.00;;;;4991121;27;88508;-65
2023/09/29 01:50:05;;;;;;;6.57;4.70;;;12.50;99.90;12.50;100794.00;;;;4989021;28;88393;-65
2023/09/29 01:52:31;;;;;;;5.83;3.23;;;12.60;99.90;12.50;100787.00;;;;4991201;27;87644;-66
2023/09/29 01:54:56;;;;;;;5.43;4.23;;;12.60;99.90;12.50;100786.00;;;;4994529;28;88049;-65
2023/09/29 01:57:22;;;;;;;4.77;4.03;;;12.50;99.90;12.50;100788.00;;;;4990554;28;116623;-65
2023/09/29 01:59:49;;;;;;;4.33;3.93;;;12.50;99.90;12.40;100788.00;;;;4993824;27;114965;-66
2023/09/29 02:02:15;;;;;;;6.17;3.77;;;12.50;99.90;12.40;100784.00;;;;4997398;27;87945;-65
2023/09/29 02:04:41;;;;;;;5.17;3.83;;;12.40;99.90;12.40;100789.00;;;;4989329;27;95210;-65
2023/09/29 02:07:09;;;;;;;6.37;4.47;;;12.40;99.90;12.40;100784.00;;;;4990548;27;118258;-65
2023/09/29 02:09:34;;;;;;;5.13;3.27;;;12.40;99.90;12.40;100787.00;;;;4990435;28;88492;-66
2023/09/29 02:12:01;;;;;;;5.03;3.80;;;12.40;99.90;12.40;100786.00;;;;4989773;27;101039;-65
2023/09/29 02:14:28;;;;;;;5.30;4.80;;;12.40;99.90;12.40;100781.00;;;;4975552;28;87685;-65
2023/09/29 02:16:53;;;;;;;6.20;4.20;;;12.40;99.90;12.40;100788.00;;;;4993700;27;88649;-66
2023/09/29 02:19:20;;;;;;;4.20;3.07;;;12.40;99.90;12.40;100792.00;;;;4972653;28;97349;-65
2023/09/29 02:21:45;;;;;;;5.40;4.13;;;12.40;99.90;12.30;100793.00;;;;4991421;28;86810;-65
2023/09/29 02:24:12;;;;;;;11.80;5.20;;;12.40;99.90;12.30;100797.00;;;;4985036;27;109042;-65
2023/09/29 02:26:38;;;;;;;7.83;3.90;;;12.40;99.90;12.30;100799.00;;;;4988067;28;87656;-66
2023/09/29 02:29:05;;;;;;;4.13;3.17;;;12.40;99.90;12.30;100792.00;;;;4989370;27;88912;-65
2023/09/29 02:31:31;;;;;;;4.00;3.27;;;12.30;99.90;12.30;100784.00;;;;4988853;27;87831;-65
2023/09/29 02:33:57;;;;;;;8.73;5.40;;;12.30;99.90;12.20;100786.00;;;;4989590;27;87632;-65
2023/09/29 02:36:23;;;;;;;4.03;3.63;;;12.70;99.90;12.30;100786.00;;;;4976719;28;89396;-65
2023/09/29 02:38:49;;;;;;;7.37;4.80;;;12.30;99.90;12.20;100792.00;;;;4991810;28;88312;-65
2023/09/29 02:41:15;;;;;;;5.43;3.47;;;12.30;99.90;12.20;100782.00;;;;4990804;28;87436;-65
2023/09/29 02:43:41;;;;;;;3.43;2.97;;;12.30;99.90;12.30;100795.00;;;;4988427;28;93062;-65
2023/09/29 02:46:16;;;;;;;5.53;4.00;;;12.30;99.90;12.20;100789.00;;;;4990810;27;91351;-65
2023/09/29 02:48:42;;;;;;;4.77;3.47;;;12.30;99.90;12.20;100787.00;;;;4992627;27;114909;-65
2023/09/29 02:51:19;;;;;;;3.83;2.93;;;12.30;99.90;12.20;100785.00;;;;4990951;28;87911;-65
2023/09/29 02:53:49;;;;;;;4.10;3.50;;;12.20;99.90;12.20;100786.00;;;;4994667;28;88376;-64
2023/09/29 02:56:16;;;;;;;5.30;4.27;;;12.30;99.90;12.20;100780.00;;;;4992053;28;88068;-64
2023/09/29 02:58:46;;;;;;;7.53;3.53;;;12.20;99.90;12.20;100775.00;;;;4991441;28;88317;-65
2023/09/29 03:01:16;;;;;;;4.67;3.77;;;12.20;99.90;12.10;100778.00;;;;4991203;28;87591;-65
2023/09/29 03:03:43;;;;;;;4.40;2.83;;;12.20;99.90;12.10;100772.00;;;;4993326;28;87965;-64
2023/09/29 03:06:12;;;;;;;4.57;3.20;;;12.10;99.90;12.10;100777.00;;;;4990810;28;88203;-64
2023/09/29 03:08:39;;;;;;;4.33;3.90;;;12.20;99.90;12.10;100778.00;;;;4988570;28;88930;-65
2023/09/29 03:11:12;;;;;;;4.73;3.73;;;12.20;99.90;12.10;100780.00;;;;4990665;28;97323;-65
2023/09/29 03:13:40;;;;;;;6.20;3.20;;;12.20;99.90;12.10;100775.00;;;;4990378;27;87820;-65
2023/09/29 03:16:07;;;;;;;5.43;3.33;;;12.10;99.90;12.10;100777.00;;;;4990514;28;87899;-65
2023/09/29 03:18:37;;;;;;;4.80;3.90;;;12.10;99.90;12.10;100773.00;;;;4987484;28;88697;-66
2023/09/29 03:21:09;;;;;;;4.77;3.40;;;12.10;99.90;12.10;100769.00;;;;4993882;27;87753;-65
2023/09/29 03:23:36;;;;;;;5.57;4.10;;;12.10;99.90;12.00;100777.00;;;;4992959;28;87927;-65
2023/09/29 03:26:03;;;;;;;6.27;3.70;;;12.10;99.90;12.00;100768.00;;;;4991199;28;88113;-64
2023/09/29 03:28:30;;;;;;;6.00;3.43;;;12.30;99.90;12.00;100764.00;;;;4990899;27;94039;-65
2023/09/29 03:30:55;;;;;;;6.30;3.67;;;12.00;99.90;12.00;100762.00;;;;4991759;28;103324;-65
2023/09/29 03:33:21;;;;;;;4.60;3.63;;;12.00;99.90;12.00;100761.00;;;;4994743;28;98098;-65
2023/09/29 03:35:47;;;;;;;3.70;3.10;;;12.00;99.90;11.90;100764.00;;;;4993603;28;117043;-65
2023/09/29 03:38:20;;;;;;;3.20;2.90;;;12.00;99.90;11.90;100766.00;;;;4994459;28;87924;-66
2023/09/29 03:40:50;;;;;;;6.00;4.17;;;12.00;99.90;11.90;100767.00;;;;4993628;28;87917;-66
2023/09/29 03:43:24;;;;;;;4.57;3.20;;;11.90;99.90;11.90;100766.00;;;;4994835;27;88932;-66
2023/09/29 03:45:53;;;;;;;7.20;3.87;;;11.90;99.90;11.80;100767.00;;;;4988980;28;88527;-65
2023/09/29 03:48:20;;;;;;;4.43;3.23;;;11.90;99.90;11.80;100772.00;;;;4996519;28;88319;-65
2023/09/29 03:50:49;;;;;;;5.57;3.90;;;11.80;99.90;11.80;100764.00;;;;4996570;27;90547;-66
2023/09/29 03:53:18;;;;;;;4.30;3.60;;;11.90;99.90;11.80;100770.00;;;;4992023;27;87908;-64
2023/09/29 03:55:47;;;;;;;5.67;4.17;;;11.80;99.90;11.80;100766.00;;;;4995703;28;117294;-65
2023/09/29 03:58:16;;;;;;;4.10;3.70;;;11.90;99.90;11.80;100770.00;;;;4990498;27;116043;-65
2023/09/29 04:00:42;;;;;;;4.80;4.10;;;11.80;99.90;11.80;100772.00;;;;4994697;27;86852;-65
2023/09/29 04:03:08;;;;;;;6.83;4.07;;;11.80;99.90;11.80;100772.00;;;;4994672;27;104389;-65
2023/09/29 04:05:33;;;;;;;3.93;3.50;;;11.80;99.90;11.70;100766.00;;;;4990855;28;103325;-65
2023/09/29 04:08:01;;;;;;;4.83;3.53;;;11.80;99.90;11.70;100776.00;;;;4989539;28;117289;-66
2023/09/29 04:10:27;;;;;;;6.13;3.53;;;11.70;99.90;11.70;100767.00;;;;4992127;27;87844;-65
2023/09/29 04:12:53;;;;;;;4.27;3.57;;;11.80;99.90;11.70;100767.00;;;;4989880;28;87499;-65
2023/09/29 04:15:20;;;;;;;5.47;3.70;;;11.70;99.90;11.70;100762.00;;;;4991681;28;91516;-65
2023/09/29 04:17:45;;;;;;;3.90;3.10;;;11.70;99.90;11.70;100763.00;;;;4990960;28;88000;-64
2023/09/29 04:20:12;;;;;;;5.17;3.03;;;11.70;99.90;11.70;100757.00;;;;4973821;28;89199;-65
2023/09/29 04:22:37;;;;;;;4.97;3.23;;;11.70;99.90;11.70;100754.00;;;;4976328;28;87813;-64
2023/09/29 04:25:08;;;;;;;4.63;4.13;;;11.70;99.90;11.70;100762.00;;;;4974264;28;89017;-65
2023/09/29 04:27:35;;;;;;;5.67;2.93;;;11.70;99.90;11.70;100761.00;;;;4991740;27;87607;-65
2023/09/29 04:30:04;;;;;;;4.93;4.20;;;11.70;99.90;11.60;100754.00;;;;4994490;28;87635;-65
2023/09/29 04:32:29;;;;;;;2.93;2.60;;;11.70;99.90;11.60;100764.00;;;;4993262;27;88887;-65
2023/09/29 04:34:55;;;;;;;4.83;3.93;;;11.70;99.90;11.60;100776.00;;;;4986749;28;89714;-66
2023/09/29 04:37:21;;;;;;;3.00;2.60;;;11.70;99.90;11.60;100771.00;;;;4995147;27;118611;-65
2023/09/29 04:39:46;;;;;;;3.70;3.20;;;11.70;99.90;11.60;100772.00;;;;4997640;28;101718;-65
2023/09/29 04:42:12;;;;;;;3.40;3.07;;;11.60;99.90;11.60;100764.00;;;;4989971;28;108663;-65
2023/09/29 04:44:38;;;;;;;4.70;3.77;;;11.60;99.90;11.60;100769.00;;;;4985354;27;116075;-66
2023/09/29 04:47:04;;;;;;;4.33;3.27;;;11.60;99.90;11.60;100768.00;;;;4987838;27;87601;-65
2023/09/29 04:49:30;;;;;;;4.23;3.27;;;11.60;99.90;11.50;100769.00;;;;4990825;27;86990;-64
2023/09/29 04:51:55;;;;;;;4.13;3.73;;;11.60;99.90;11.50;100762.00;;;;4990079;27;94556;-64
2023/09/29 04:54:21;;;;;;;3.20;2.90;;;11.60;99.90;11.50;100764.00;;;;4988839;27;118020;-65
2023/09/29 04:56:47;;;;;;;7.80;3.67;;;11.50;99.90;11.50;100769.00;;;;4989845;27;117916;-66
2023/09/29 04:59:12;;;;;;;4.77;3.43;;;11.50;99.90;11.50;100767.00;;;;4986990;27;111678;-65
2023/09/29 05:01:38;;;;;;;4.00;3.60;;;11.50;99.90;11.40;100762.00;;;;4990729;27;87391;-65
2023/09/29 05:04:05;;;;;;;5.13;3.90;;;11.50;99.90;11.40;100760.00;;;;4970255;28;119537;-64
2023/09/29 05:06:30;;;;;;;3.40;2.77;;;11.50;99.90;11.40;100762.00;;;;4989626;28;88399;-66
2023/09/29 05:08:56;;;;;;;4.97;3.93;;;11.50;99.90;11.40;100767.00;;;;4987335;27;87810;-64
2023/09/29 05:11:24;;;;;;;5.30;3.47;;;11.50;99.90;11.40;100760.00;;;;4990872;28;87890;-66
2023/09/29 05:13:51;;;;;;;3.53;3.17;;;11.50;99.90;11.40;100768.00;;;;4988209;27;92457;-64
2023/09/29 05:16:17;;;;;;;3.37;3.00;;;11.50;99.90;11.40;100766.00;;;;4988328;27;99571;-64
2023/09/29 05:18:44;;;;;;;4.87;3.70;;;11.50;99.90;11.50;100776.00;;;;4971380;28;87960;-64
2023/09/29 05:21:11;;;;;;;3.57;3.27;;;11.50;99.90;11.50;100770.00;;;;4986360;27;89300;-65
2023/09/29 05:23:37;;;;;;;9.23;4.67;;;11.50;99.90;11.50;100766.00;;;;4977851;28;87772;-65
2023/09/29 05:26:07;;;;;;;4.20;3.80;;;11.50;99.90;11.50;100760.00;;;;4972259;28;96113;-64
2023/09/29 05:28:34;;;;;;;5.20;4.13;;;11.50;99.90;11.50;100766.00;;;;4988662;28;88210;-64
2023/09/29 05:31:01;;;;;;;8.27;3.30;;;11.50;99.90;11.60;100764.00;;;;4987193;28;87971;-64
2023/09/29 05:33:27;;;;;;;5.40;3.53;;;11.60;99.90;11.70;100769.00;;;;4988236;28;89202;-65
2023/09/29 05:35:52;;;;;;;3.57;3.00;;;11.60;99.90;11.80;100772.00;;;;4985627;28;117237;-65
2023/09/29 05:38:18;;;;;;;6.70;3.40;;;11.80;99.90;11.90;100758.00;;;;4988927;28;86902;-65
2023/09/29 05:40:47;;;;;;;5.80;3.67;;;11.90;99.90;12.00;100769.00;;;;4985038;28;108462;-65
2023/09/29 05:43:13;;;;;;;15.57;4.70;;;12.00;99.90;12.10;100770.00;;;;4982984;28;88532;-65
2023/09/29 05:45:40;;;;;;;5.70;3.90;;;12.00;99.90;12.30;100759.00;;;;4987452;28;88839;-65
2023/09/29 05:48:06;;;;;;;6.17;3.70;;;12.20;99.90;12.40;100771.00;;;;4987899;27;87584;-64
2023/09/29 05:50:32;;;;;;;7.17;3.90;;;12.40;99.90;12.60;100776.00;;;;4989237;28;87621;-64
2023/09/29 05:52:59;;;;;;;5.93;4.33;;;12.50;99.90;12.80;100771.00;;;;4987171;28;104592;-64
2023/09/29 05:55:25;;;;;;;6.10;3.57;;;12.70;99.90;12.90;100774.00;;;;4973485;28;88009;-64
2023/09/29 05:57:51;;;;;;;24.07;3.90;;;13.40;99.90;13.10;100776.00;;;;4989344;28;99701;-65
2023/09/29 06:00:18;;;;;;;3.30;2.87;;;13.10;99.90;13.30;100788.00;;;;4984870;27;87698;-64
2023/09/29 06:02:44;;;;;;;3.53;2.50;;;13.30;99.90;13.60;100785.00;;;;4986984;28;87662;-65
2023/09/29 06:05:10;;;;;;;5.47;3.97;;;13.40;99.90;13.80;100784.00;;;;4991433;27;87576;-65
2023/09/29 06:07:36;;;;;;;4.70;3.23;;;13.60;99.90;14.00;100790.00;;;;4989092;27;87893;-65
2023/09/29 06:10:03;;;;;;;5.43;3.63;;;13.90;99.90;14.20;100791.00;;;;4984658;27;95033;-65
2023/09/29 06:12:29;;;;;;;3.97;2.92;;;14.10;99.90;14.50;100798.00;;;;4987648;28;87741;-66
2023/09/29 06:14:56;;;;;;;4.68;3.15;;;14.80;99.90;14.70;100795.00;;;;4956629;28;89747;-65
2023/09/29 06:17:22;;;;;;;3.97;3.58;;;14.80;99.90;15.00;100804.00;;;;4972915;28;87649;-64
2023/09/29 06:19:48;;;;;;;5.68;3.60;;;14.80;99.90;15.20;100801.00;;;;4987021;28;87695;-65
2023/09/29 06:22:14;;;;;;;5.28;3.42;;;15.10;99.90;15.50;100803.00;;;;4989290;28;87720;-64
2023/09/29 06:24:42;;;;;;;3.67;2.83;;;15.30;99.90;15.80;100802.00;;;;4988217;28;118332;-65
2023/09/29 06:27:07;;;;;;;5.95;4.25;;;15.60;99.90;16.00;100794.00;;;;4989569;28;87417;-65
2023/09/29 06:29:33;;;;;;;3.97;2.85;;;15.90;99.90;16.30;100809.00;;;;4988637;28;109054;-64
2023/09/29 06:31:58;;;;;;;5.10;3.42;;;16.10;99.90;16.60;100813.00;;;;4984386;27;117937;-64
2023/09/29 06:34:24;;;;;;;4.63;4.18;;;16.40;99.90;16.90;100805.00;;;;4986926;28;117313;-64
2023/09/29 06:36:50;;;;;;;5.20;3.28;;;16.70;99.90;17.20;100810.00;;;;4987146;27;106839;-65
2023/09/29 06:39:15;;;;;;;3.95;3.05;;;17.00;99.90;17.50;100814.00;;;;4969563;28;101428;-65
2023/09/29 06:41:42;;;;;;;5.18;3.65;;;17.30;99.90;17.80;100817.00;;;;4989243;28;116188;-66
2023/09/29 06:44:07;;;;;;;3.35;2.85;;;17.60;99.90;18.10;100809.00;;;;4976031;28;88283;-64
2023/09/29 06:46:33;;;;;;;7.25;3.45;;;17.90;99.90;18.40;100815.00;;;;4991434;27;87950;-65
2023/09/29 06:49:03;;;;;;;5.88;3.20;;;18.20;99.90;18.70;100819.00;;;;4988843;28;87613;-65
2023/09/29 06:51:29;;;;;;;3.28;2.30;;;18.50;99.90;19.00;100817.00;;;;4972738;27;86910;-64
2023/09/29 06:53:55;;;;;;;5.75;3.05;;;18.80;99.90;19.40;100816.00;;;;4987302;27;88805;-65
2023/09/29 06:56:20;;;;;;;7.95;4.00;;;19.10;99.90;19.70;100818.00;;;;4982388;28;109927;-65
2023/09/29 06:58:46;;;;;;;14.77;3.85;;;19.50;99.90;20.00;100820.00;;;;4984028;28;107867;-64
2023/09/29 07:01:12;;;;;;;4.72;3.63;;;19.80;99.90;20.40;100826.00;;;;4989059;28;89181;-65
2023/09/29 07:03:39;;;;;;;5.55;3.30;;;20.10;99.90;20.70;100829.00;;;;4984699;27;88101;-65
2023/09/29 07:06:05;;;;;;;6.47;5.15;;;20.40;99.90;21.10;100831.00;;;;4985756;27;99252;-66
2023/09/29 07:08:31;;;;;;;5.60;3.75;;;20.80;99.50;21.50;100833.00;;;;4990778;27;87859;-65
2023/09/29 07:10:57;;;;;;;3.67;2.92;;;21.20;99.00;21.80;100837.00;;;;4983135;27;88226;-65
2023/09/29 07:13:23;;;;;;;3.15;2.22;;;21.80;98.50;22.20;100838.00;;;;4970314;27;87856;-65
2023/09/29 07:15:49;;;;;;;4.10;2.70;;;21.90;97.90;22.50;100834.00;;;;4987908;27;86870;-65
2023/09/29 07:18:16;;;;;;;3.33;3.00;;;22.30;97.30;22.90;100836.00;;;;4992315;27;108778;-65
2023/09/29 07:20:45;;;;;;;3.22;2.65;;;22.60;96.80;23.30;100837.00;;;;4994073;27;87838;-65
2023/09/29 07:23:11;;;;;;;2.90;2.42;;;23.00;96.10;23.60;100835.00;;;;4995055;27;88842;-65
2023/09/29 07:25:37;;;;;;;9.20;2.88;;;23.30;95.60;24.00;100827.00;;;;4990619;27;88370;-66
2023/09/29 07:28:14;;;;;;;3.13;2.50;;;23.70;94.40;24.30;100834.00;;;;4985855;27;100095;-66
2023/09/29 07:30:44;;;;;;;3.13;2.60;;;24.00;93.50;24.50;100844.00;;;;4988874;27;106811;-66
2023/09/29 07:33:10;;;;;;;5.38;3.05;;;24.30;91.70;24.70;100833.00;;;;4987014;27;88680;-66
2023/09/29 07:35:36;;;;;;;4.20;2.65;;;24.40;91.20;24.90;100834.00;;;;4986783;27;87809;-66
2023/09/29 07:38:03;;;;;;;3.75;2.28;;;24.60;90.70;25.10;100832.00;;;;4968195;28;87671;-65
2023/09/29 07:40:29;;;;;;;5.25;2.33;;;24.90;90.20;25.40;100839.00;;;;4989299;28;87235;-66
2023/09/29 07:42:54;;;;;;;6.25;3.03;;;25.10;89.30;25.60;100838.00;;;;4991248;27;87992;-66
2023/09/29 07:45:21;;;;;;;3.55;1.77;;;25.40;85.80;25.60;100835.00;;;;4986853;28;106588;-65
2023/09/29 07:47:47;;;;;;;3.83;2.03;;;25.40;84.10;25.60;100831.00;;;;4988329;28;109016;-67
2023/09/29 07:50:13;;;;;;;2.20;1.83;;;25.40;80.30;25.50;100828.00;;;;4986747;27;87943;-66
2023/09/29 07:52:45;;;;;;;10.23;4.32;;;25.40;80.00;25.50;100839.00;;;;4985302;28;118448;-65
2023/09/29 07:55:11;;;;;;;4.32;2.60;;;25.30;79.90;25.50;100843.00;;;;4970056;28;89469;-66
2023/09/29 07:57:37;;;;;;;4.25;2.88;;;25.30;79.70;25.60;100843.00;;;;4989831;27;88369;-67
2023/09/29 08:00:10;;;;;;;1.67;1.33;;;25.40;79.20;25.60;100847.00;;;;4985071;28;118507;-65
2023/09/29 08:02:35;;;;;;;5.43;2.47;;;25.40;78.20;25.70;100847.00;;;;4986988;27;87933;-66
2023/09/29 08:05:02;;;;;;;4.43;1.95;;;25.50;77.50;25.70;100849.00;;;;4986827;27;87204;-66
2023/09/29 08:07:28;;;;;;;4.05;2.53;;;25.60;76.10;25.80;100844.00;;;;4989745;28;87778;-65
2023/09/29 08:09:53;;;;;;;6.90;2.40;;;25.60;76.10;25.90;100850.00;;;;4990222;27;118287;-66
2023/09/29 08:12:20;;;;;;;5.32;2.35;;;25.70;74.30;26.00;100846.00;;;;4984372;27;111032;-66
2023/09/29 08:14:47;;;;;;;3.03;2.30;;;25.80;73.30;26.10;100844.00;;;;4987259;27;87949;-65
2023/09/29 08:17:13;;;;;;;3.08;1.48;;;25.90;71.70;26.10;100844.00;;;;4987546;28;87777;-65
2023/09/29 08:19:39;;;;;;;3.05;1.88;;;25.90;70.40;26.10;100844.00;;;;4991897;28;88627;-64
2023/09/29 08:22:05;;;;;;;2.97;1.40;;;25.90;69.20;26.20;100848.00;;;;4988870;28;88042;-66
2023/09/29 08:24:32;;;;;;;5.18;2.60;;;26.00;69.30;26.40;100844.00;;;;4985420;28;88039;-64
2023/09/29 08:26:58;;;;;;;1.63;1.52;;;26.20;69.90;26.70;100847.00;;;;4990307;28;87959;-67
2023/09/29 08:29:24;;;;;;;2.13;1.38;;;26.40;68.00;26.90;100834.00;;;;4985804;28;106323;-66
2023/09/29 08:31:50;;;;;;;2.20;1.70;;;26.60;66.40;27.10;100837.00;;;;4986388;28;114472;-66
2023/09/29 08:34:15;;;;;;;8.93;2.28;;;26.80;65.10;27.20;100844.00;;;;4988414;28;88223;-65
2023/09/29 08:36:41;;;;;;;7.15;2.20;;;27.00;64.10;27.30;100844.00;;;;4985392;28;88904;-65
2023/09/29 08:39:07;;;;;;;1.70;1.20;;;27.10;62.00;27.10;100854.00;;;;4991188;28;88987;-67
2023/09/29 08:41:35;;;;;;;2.25;1.50;;;27.00;61.60;27.00;100847.00;;;;4972334;28;117726;-66
2023/09/29 08:44:05;;;;;;;2.45;0.98;;;26.80;61.80;26.80;100852.00;;;;4989237;28;87885;-67
2023/09/29 08:46:34;;;;;;;2.30;1.52;;;26.70;61.60;26.70;100854.00;;;;4984674;28;87928;-66
2023/09/29 08:49:03;;;;;;;6.60;2.03;;;26.60;61.70;26.70;100858.00;;;;4984380;28;88545;-65
2023/09/29 08:51:29;;;;;;;4.72;1.50;;;26.50;61.50;26.70;100844.00;;;;4973766;27;87954;-66
2023/09/29 08:53:58;;;;;;;3.75;1.67;;;26.50;61.50;26.80;100845.00;;;;4988216;28;108946;-66
2023/09/29 08:56:24;;;;;;;4.22;1.58;;;26.50;61.60;26.90;100851.00;;;;4988658;28;88059;-65
2023/09/29 08:58:50;;;;;;;2.30;1.95;;;26.60;61.70;27.10;100835.00;;;;4969586;28;116541;-66
2023/09/29 09:01:16;;;;;;;2.10;1.88;;;26.70;61.30;27.40;100838.00;;;;4988470;28;88771;-66
2023/09/29 09:03:42;;;;;;;2.35;1.80;;;27.00;60.90;27.60;100838.00;;;;4986914;28;110765;-65
2023/09/29 09:06:22;;;;;;;1.83;1.35;;;27.20;60.40;27.60;100832.00;;;;4985591;28;108828;-66
2023/09/29 09:08:54;;;;;;;3.30;1.80;;;27.30;59.30;27.60;100836.00;;;;4988542;28;87761;-68
2023/09/29 09:11:20;;;;;;;3.42;1.75;;;27.30;58.50;27.40;100831.00;;;;4983765;28;88663;-65
2023/09/29 09:13:59;;;;;;;1.27;1.15;;;27.20;58.50;27.20;100837.00;;;;4986133;28;88119;-66
2023/09/29 09:16:32;;;;;;;1.45;1.30;;;27.10;59.00;27.20;100849.00;;;;4984563;28;92750;-66
2023/09/29 09:19:09;;;;;;;5.15;1.88;;;27.00;59.20;27.10;100839.00;;;;4987262;28;87357;-66
2023/09/29 09:21:35;;;;;;;17.85;3.25;;;26.90;59.40;27.20;100847.00;;;;4989153;28;87787;-67
2023/09/29 09:24:00;;;;;;;4.32;2.08;;;26.90;59.60;27.20;100855.00;;;;4985853;28;109469;-66
2023/09/29 09:26:28;;;;;;;2.05;1.40;;;27.00;59.40;27.20;100857.00;;;;4986701;28;109684;-65
2023/09/29 09:28:54;;;;;;;2.97;1.55;;;27.00;59.10;27.20;100859.00;;;;4991017;28;89081;-67
2023/09/29 09:31:20;;;;;;;2.60;1.27;;;26.90;59.00;27.20;100862.00;;;;4986358;28;117948;-67
2023/09/29 09:33:53;;;;;;;3.20;1.33;;;26.90;58.90;27.30;100859.00;;;;4982516;28;110939;-67
2023/09/29 09:36:19;;;;;;;2.45;1.70;;;27.00;59.30;27.50;100859.00;;;;4987307;28;88201;-68
2023/09/29 09:38:47;;;;;;;1.73;1.10;;;27.10;59.10;27.60;100852.00;;;;4989248;28;117939;-68
2023/09/29 09:41:16;;;;;;;2.95;1.52;;;27.30;58.30;27.70;100848.00;;;;4987568;28;88031;-66
2023/09/29 09:43:43;;;;;;;3.47;1.20;;;27.40;57.30;27.80;100854.00;;;;4985379;28;87460;-66
2023/09/29 09:46:12;;;;;;;1.27;1.17;;;27.50;57.60;28.00;100846.00;;;;4986431;28;88220;-67
2023/09/29 09:48:55;;;;;;;2.80;1.25;;;27.70;57.20;28.30;100848.00;;;;4984044;28;88761;-68
2023/09/29 09:51:34;;;;;;;4.32;2.13;;;27.90;57.20;28.50;100836.00;;;;4988469;27;88785;-68
2023/09/29 09:54:04;;;;;;;1.85;1.55;;;28.10;55.70;28.60;100837.00;;;;4990175;28;87758;-69
2023/09/29 09:56:59;;;;;;;3.20;1.48;;;28.20;55.50;28.80;100834.00;;;;4989311;28;93383;-68
2023/09/29 09:59:27;;;;;;;1.58;1.42;;;28.40;55.30;28.90;100839.00;;;;4985823;28;110587;-68
2023/09/29 10:01:58;;;;;;;4.22;1.55;;;28.50;54.70;28.90;100839.00;;;;4986049;27;88646;-69
2023/09/29 10:04:32;;;;;;;2.35;1.60;;;28.50;54.60;28.90;100833.00;;;;4985928;28;99594;-69
2023/09/29 10:06:59;;;;;;;1.98;1.60;;;28.60;54.30;28.80;100826.00;;;;4973726;28;88459;-69
2023/09/29 10:09:26;;;;;;;1.60;1.08;;;28.50;53.70;28.60;100823.00;;;;4985990;28;88387;-69
2023/09/29 10:11:59;;;;;;;1.60;1.45;;;28.30;53.80;28.60;100825.00;;;;4984141;28;97678;-69
2023/09/29 10:14:24;;;;;;;2.90;1.25;;;28.20;54.40;28.60;100825.00;;;;4986141;28;95712;-69
2023/09/29 10:17:05;;;;;;;4.07;1.27;;;28.20;54.70;28.60;100826.00;;;;4981276;28;108449;-69
2023/09/29 10:19:37;;;;;;;4.65;1.77;;;28.30;54.60;28.50;100823.00;;;;4984275;28;88028;-69
2023/09/29 10:22:04;;;;;;;1.35;1.08;;;28.20;54.50;28.40;100826.00;;;;4965930;28;89108;-68
2023/09/29 10:24:30;;;;;;;5.70;1.52;;;28.10;54.40;28.30;100817.00;;;;4986856;28;87937;-68
2023/09/29 10:27:03;;;;;;;1.73;1.20;;;28.00;54.60;28.30;100835.00;;;;4990185;28;88452;-67
2023/09/29 10:29:32;;;;;;;2.33;1.42;;;28.00;54.90;28.30;100824.00;;;;4986471;28;88321;-67
2023/09/29 10:32:16;;;;;;;1.73;1.63;;;28.00;55.20;28.30;100820.00;;;;4986415;28;88607;-70
2023/09/29 10:34:42;;;;;;;4.30;1.50;;;28.00;54.90;28.30;100821.00;;;;4972845;28;87591;-68
2023/09/29 10:37:11;;;;;;;2.67;1.08;;;28.00;55.10;28.30;100827.00;;;;4983639;28;107728;-68
2023/09/29 10:39:37;;;;;;;2.50;1.27;;;27.90;55.60;28.30;100825.00;;;;4986013;27;89216;-69
2023/09/29 10:42:14;;;;;;;2.03;1.60;;;27.90;55.00;28.20;100825.00;;;;4965210;28;89132;-70
2023/09/29 10:44:57;;;;;;;1.83;1.42;;;27.90;55.20;28.20;100832.00;;;;4974892;28;88000;-69
2023/09/29 10:47:36;;;;;;;2.45;1.45;;;27.90;55.20;28.30;100833.00;;;;4983578;28;87858;-70